Time;durP1;ratioP1;P1;durP2;ratioP2;P2;SDS_P1;SDS_P2;PMS_P1;PMS_P2;Temp;Humidity;BMP_temperature;BMP_pressure;BME280_temperature;BME280_humidity;BME280_pressure;Samples;Min_cycle;Max_cycle;Signal;HPM_P1;HPM_P2
2022/08/04 00:01:33;;;;;;;0.10;0.10;;;20.40;99.90;;;;;;4737603;30;20146;-89
2022/08/04 00:04:07;;;;;;;0.20;0.08;;;20.40;99.90;;;;;;4837886;29;20068;-89
2022/08/04 00:06:47;;;;;;;0.52;0.25;;;20.40;99.90;;;;;;4858607;29;20053;-89
2022/08/04 00:09:22;;;;;;;0.10;0.10;;;20.40;99.90;;;;;;4859347;29;20079;-89
2022/08/04 00:11:52;;;;;;;0.25;0.20;;;20.40;99.90;;;;;;4860155;29;20470;-89
2022/08/04 00:14:18;;;;;;;0.10;0.10;;;20.30;99.90;;;;;;4844017;29;20064;-89
2022/08/04 00:16:48;;;;;;;0.05;0.05;;;20.30;99.90;;;;;;4859643;29;20489;-88
2022/08/04 00:19:24;;;;;;;0.00;0.00;;;20.30;99.90;;;;;;4859032;29;20493;-89
2022/08/04 00:22:02;;;;;;;0.00;0.00;;;20.20;99.90;;;;;;4843810;29;20054;-89
2022/08/04 00:24:30;;;;;;;0.10;0.03;;;20.20;99.90;;;;;;4842909;29;20122;-89
2022/08/04 00:26:56;;;;;;;0.10;0.10;;;20.20;99.90;;;;;;4856299;29;20074;-89
2022/08/04 00:29:22;;;;;;;0.30;0.00;;;20.10;99.90;;;;;;4841431;29;20111;-89
2022/08/04 00:31:48;;;;;;;0.00;0.00;;;20.00;99.90;;;;;;4839758;29;20081;-89
2022/08/04 00:34:14;;;;;;;;;;;20.00;99.90;;;;;;4841021;29;20054;-89
2022/08/04 00:36:42;;;;;;;0.20;0.00;;;20.00;99.90;;;;;;4809847;29;19924;-89
2022/08/04 00:39:12;;;;;;;0.40;0.40;;;20.00;99.90;;;;;;4844324;29;20384;-89
2022/08/04 00:41:49;;;;;;;0.10;0.00;;;19.90;99.90;;;;;;4858432;29;20054;-89
2022/08/04 00:44:46;;;;;;;0.10;0.10;;;19.90;99.90;;;;;;4843928;29;20412;-89
2022/08/04 00:47:30;;;;;;;0.50;0.30;;;19.90;99.90;;;;;;4828619;29;20071;-89
2022/08/04 00:50:07;;;;;;;0.40;0.10;;;19.90;99.90;;;;;;4843786;29;20098;-89
2022/08/04 00:52:47;;;;;;;0.08;0.08;;;19.80;99.90;;;;;;4844518;29;20079;-89
2022/08/04 00:55:28;;;;;;;0.30;0.10;;;19.80;99.90;;;;;;4843916;29;20061;-89
2022/08/04 00:58:18;;;;;;;0.00;0.00;;;19.80;99.90;;;;;;4852009;29;20097;-89
2022/08/04 01:00:58;;;;;;;0.20;0.10;;;19.80;99.90;;;;;;4861669;29;20057;-89
2022/08/04 01:04:04;;;;;;;0.13;0.10;;;19.70;99.90;;;;;;4846345;29;20061;-89
2022/08/04 01:06:40;;;;;;;0.20;0.15;;;19.70;99.90;;;;;;4820979;29;20061;-89
2022/08/04 01:09:26;;;;;;;0.30;0.20;;;19.70;99.90;;;;;;4863071;29;20194;-89
2022/08/04 01:12:32;;;;;;;0.25;0.05;;;19.60;99.90;;;;;;4845885;29;20393;-89
2022/08/04 01:15:15;;;;;;;0.20;0.20;;;19.60;99.90;;;;;;4861822;29;20072;-89
2022/08/04 01:18:02;;;;;;;0.45;0.10;;;19.60;99.90;;;;;;4846047;29;20113;-89
2022/08/04 01:20:36;;;;;;;0.20;0.20;;;19.60;99.90;;;;;;4861845;29;20093;-89
2022/08/04 01:23:02;;;;;;;0.45;0.28;;;19.60;99.90;;;;;;4861435;29;20066;-89
2022/08/04 01:25:56;;;;;;;0.52;0.28;;;19.50;99.90;;;;;;4861640;29;20061;-89
2022/08/04 01:28:29;;;;;;;0.73;0.10;;;19.50;99.90;;;;;;4860274;29;20077;-89
2022/08/04 01:31:08;;;;;;;0.00;0.00;;;19.40;99.90;;;;;;4845130;29;20132;-89
2022/08/04 01:33:38;;;;;;;0.32;0.20;;;19.40;99.90;;;;;;4861079;29;20050;-89
2022/08/04 01:36:05;;;;;;;0.03;0.03;;;19.40;99.90;;;;;;4862613;29;20085;-89
2022/08/04 01:38:39;;;;;;;0.00;0.00;;;19.40;99.90;;;;;;4862274;29;20090;-89
2022/08/04 01:41:13;;;;;;;0.10;0.10;;;19.30;99.90;;;;;;4830474;29;20049;-89
2022/08/04 01:43:44;;;;;;;0.10;0.10;;;19.40;99.90;;;;;;4861048;29;20049;-89
2022/08/04 01:46:12;;;;;;;0.47;0.40;;;19.30;99.90;;;;;;4861274;29;20113;-89
2022/08/04 01:48:39;;;;;;;0.10;0.10;;;19.30;99.90;;;;;;4860459;29;20049;-89
2022/08/04 01:51:07;;;;;;;0.22;0.22;;;19.30;99.90;;;;;;4845674;29;20056;-89
2022/08/04 01:53:41;;;;;;;0.20;0.10;;;19.30;99.90;;;;;;4861189;29;20045;-88
2022/08/04 01:56:09;;;;;;;0.10;0.10;;;19.30;99.90;;;;;;4861375;29;20050;-88
2022/08/04 01:58:36;;;;;;;0.22;0.10;;;19.20;99.90;;;;;;4859085;29;20053;-88
2022/08/04 02:01:07;;;;;;;0.00;0.00;;;19.20;99.90;;;;;;4842916;29;20066;-89
2022/08/04 02:03:34;;;;;;;0.10;0.10;;;19.20;99.90;;;;;;4858003;29;20050;-89
2022/08/04 02:06:14;;;;;;;0.22;0.22;;;19.10;99.90;;;;;;4857743;29;20064;-89
2022/08/04 02:08:55;;;;;;;0.20;0.10;;;19.10;99.90;;;;;;4842108;29;20110;-89
2022/08/04 02:11:21;;;;;;;0.40;0.15;;;19.10;99.90;;;;;;4842148;29;20133;-89
2022/08/04 02:14:11;;;;;;;0.22;0.13;;;19.10;99.90;;;;;;4857501;29;20053;-89
2022/08/04 02:16:46;;;;;;;0.20;0.10;;;19.10;99.90;;;;;;4842121;29;20058;-89
2022/08/04 02:19:31;;;;;;;0.20;0.20;;;19.00;99.90;;;;;;4843187;29;20058;-88
2022/08/04 02:22:09;;;;;;;0.80;0.30;;;19.00;99.90;;;;;;4842961;29;20125;-89
2022/08/04 02:24:46;;;;;;;0.68;0.17;;;19.00;99.90;;;;;;4861725;29;20057;-89
2022/08/04 02:27:13;;;;;;;0.00;0.00;;;19.00;99.90;;;;;;4860705;29;20140;-89
2022/08/04 02:29:42;;;;;;;0.32;0.32;;;19.00;99.90;;;;;;4861883;29;20061;-89
2022/08/04 02:32:20;;;;;;;0.10;0.10;;;19.00;99.90;;;;;;4848301;29;20049;-88
2022/08/04 02:35:06;;;;;;;0.10;0.10;;;18.90;99.90;;;;;;4863224;29;20128;-89
2022/08/04 02:37:34;;;;;;;0.10;0.10;;;19.00;99.90;;;;;;4863454;29;20100;-89
2022/08/04 02:40:03;;;;;;;0.00;0.00;;;18.90;99.90;;;;;;4879586;29;20053;-89
2022/08/04 02:42:29;;;;;;;0.15;0.15;;;18.90;99.90;;;;;;4879987;29;20063;-88
2022/08/04 02:44:57;;;;;;;0.00;0.00;;;18.80;99.90;;;;;;4847683;29;20052;-89
2022/08/04 02:47:25;;;;;;;0.05;0.05;;;18.80;99.90;;;;;;4848046;29;20097;-89
2022/08/04 02:49:52;;;;;;;0.13;0.10;;;18.80;99.90;;;;;;4862720;29;20113;-89
2022/08/04 02:52:19;;;;;;;0.08;0.08;;;18.80;99.90;;;;;;4847914;29;20405;-89
2022/08/04 02:54:49;;;;;;;0.20;0.20;;;18.70;99.90;;;;;;4862488;29;20417;-88
2022/08/04 02:57:17;;;;;;;0.25;0.13;;;18.70;99.90;;;;;;4879860;29;20165;-89
2022/08/04 03:00:10;;;;;;;0.10;0.10;;;18.70;99.90;;;;;;4860760;29;20064;-89
2022/08/04 03:02:39;;;;;;;0.10;0.10;;;18.70;99.90;;;;;;4862578;29;20404;-89
2022/08/04 03:05:16;;;;;;;0.00;0.00;;;18.70;99.90;;;;;;4847271;29;20057;-89
2022/08/04 03:07:53;;;;;;;0.15;0.15;;;18.60;99.90;;;;;;4847101;29;20057;-88
2022/08/04 03:10:35;;;;;;;0.20;0.20;;;18.60;99.90;;;;;;4862942;29;20045;-89
2022/08/04 03:13:19;;;;;;;2.28;0.20;;;18.60;99.90;;;;;;4847235;29;20095;-89
2022/08/04 03:16:24;;;;;;;0.15;0.00;;;18.60;99.90;;;;;;4846891;29;20514;-89
2022/08/04 03:18:56;;;;;;;0.00;0.00;;;18.60;99.90;;;;;;4862470;29;20071;-88
2022/08/04 03:21:54;;;;;;;0.10;0.10;;;18.50;99.90;;;;;;4847571;29;20085;-89
2022/08/04 03:24:56;;;;;;;0.10;0.10;;;18.60;99.90;;;;;;4841703;29;20053;-88
2022/08/04 03:27:46;;;;;;;0.50;0.30;;;18.60;99.90;;;;;;4879445;29;20060;-89
2022/08/04 03:30:27;;;;;;;0.80;0.80;;;18.70;99.90;;;;;;4833137;29;20057;-89
2022/08/04 03:33:38;;;;;;;0.10;0.10;;;18.70;99.90;;;;;;4861960;29;20155;-89
2022/08/04 03:36:41;;;;;;;0.10;0.10;;;18.60;99.90;;;;;;4862194;29;20072;-89
2022/08/04 03:39:49;;;;;;;0.00;0.00;;;18.60;99.90;;;;;;4861833;29;20048;-88
2022/08/04 03:42:38;;;;;;;0.25;0.10;;;18.50;99.90;;;;;;4847256;29;20060;-89
2022/08/04 03:45:54;;;;;;;0.00;0.00;;;18.50;99.90;;;;;;4862068;29;20445;-89
2022/08/04 03:48:42;;;;;;;0.28;0.17;;;18.50;99.90;;;;;;4826386;29;20105;-88
2022/08/04 03:55:28;;;;;;;0.25;0.10;;;18.40;99.90;;;;;;4844564;29;20143;-89
2022/08/04 03:58:11;;;;;;;;;;;18.50;99.90;;;;;;4861925;29;20136;-88
2022/08/04 04:01:11;;;;;;;0.10;0.10;;;18.40;99.90;;;;;;4876869;29;19923;-88
2022/08/04 04:03:40;;;;;;;0.10;0.10;;;18.40;99.90;;;;;;4845498;29;20089;-89
2022/08/04 04:06:33;;;;;;;0.00;0.00;;;18.40;99.90;;;;;;4846563;29;20092;-89
2022/08/04 04:09:22;;;;;;;0.20;0.20;;;18.30;99.90;;;;;;4861669;29;20053;-88
2022/08/04 04:12:10;;;;;;;0.38;0.30;;;18.40;99.90;;;;;;4863454;29;20137;-89
2022/08/04 04:14:55;;;;;;;0.38;0.00;;;18.30;99.90;;;;;;4882579;29;20081;-89
2022/08/04 04:17:52;;;;;;;0.05;0.03;;;18.30;99.90;;;;;;4866130;29;20049;-89
2022/08/04 04:20:46;;;;;;;0.20;0.10;;;18.30;99.90;;;;;;4865947;29;20053;-89
2022/08/04 04:23:33;;;;;;;0.10;0.10;;;18.40;99.90;;;;;;4849855;29;20148;-89
2022/08/04 04:26:16;;;;;;;0.10;0.10;;;18.30;99.90;;;;;;4849848;29;20069;-89
2022/08/04 04:29:01;;;;;;;0.20;0.10;;;18.40;99.90;;;;;;4874674;29;20469;-89
2022/08/04 04:31:53;;;;;;;0.10;0.10;;;18.40;99.90;;;;;;4863595;29;20113;-89
2022/08/04 04:34:22;;;;;;;0.38;0.10;;;18.40;99.90;;;;;;4862863;29;20461;-89
2022/08/04 04:37:26;;;;;;;0.10;0.10;;;18.40;99.90;;;;;;4831820;29;20081;-89
2022/08/04 04:40:32;;;;;;;0.10;0.10;;;18.40;99.90;;;;;;4846278;29;20069;-89
2022/08/04 04:43:01;;;;;;;0.38;0.15;;;18.50;99.90;;;;;;4820994;29;20061;-89
2022/08/04 04:45:39;;;;;;;0.20;0.20;;;18.50;99.90;;;;;;4862116;29;20488;-89
2022/08/04 04:48:37;;;;;;;0.10;0.10;;;18.50;99.90;;;;;;4846500;29;20136;-89
2022/08/04 04:51:20;;;;;;;0.17;0.17;;;18.60;99.90;;;;;;4846392;29;20109;-89
2022/08/04 04:53:55;;;;;;;0.00;0.00;;;18.60;99.90;;;;;;4846938;29;20054;-89
2022/08/04 04:56:46;;;;;;;0.15;0.15;;;18.70;99.90;;;;;;4862172;29;20485;-89
2022/08/04 04:59:15;;;;;;;0.10;0.10;;;18.70;99.90;;;;;;4850696;29;20057;-89
2022/08/04 05:01:58;;;;;;;0.30;0.30;;;18.70;99.90;;;;;;4846653;29;20408;-89
2022/08/04 05:04:47;;;;;;;0.10;0.10;;;18.80;99.90;;;;;;4862897;29;20485;-88
2022/08/04 05:07:51;;;;;;;0.30;0.20;;;18.80;99.90;;;;;;4846140;29;20060;-89
2022/08/04 05:10:55;;;;;;;0.15;0.15;;;18.80;99.90;;;;;;4846103;29;20079;-88
2022/08/04 05:13:29;;;;;;;0.17;0.15;;;18.80;99.90;;;;;;4830788;29;20489;-89
2022/08/04 05:15:59;;;;;;;0.15;0.15;;;18.90;99.90;;;;;;4846646;29;20049;-89
2022/08/04 05:18:29;;;;;;;0.00;0.00;;;19.00;99.90;;;;;;4862699;29;20405;-89
2022/08/04 05:21:05;;;;;;;0.00;0.00;;;19.00;99.90;;;;;;4846530;29;20100;-89
2022/08/04 05:23:34;;;;;;;;;;;19.20;99.90;;;;;;4845695;29;20058;-89
2022/08/04 05:26:09;;;;;;;0.65;0.30;;;19.90;99.90;;;;;;4845870;29;19935;-89
2022/08/04 05:28:57;;;;;;;0.30;0.10;;;19.30;99.90;;;;;;4846718;29;20136;-89
2022/08/04 05:31:48;;;;;;;0.65;0.38;;;19.40;99.90;;;;;;4845616;29;20045;-89
2022/08/04 05:34:38;;;;;;;0.10;0.10;;;19.50;99.90;;;;;;4845809;29;20065;-89
2022/08/04 05:37:09;;;;;;;0.20;0.20;;;19.60;99.90;;;;;;4861504;29;20481;-89
2022/08/04 05:39:48;;;;;;;0.35;0.35;;;19.60;99.90;;;;;;4830783;29;20148;-89
2022/08/04 05:42:15;;;;;;;0.22;0.10;;;19.70;99.90;;;;;;4861061;29;20080;-89
2022/08/04 05:44:42;;;;;;;0.65;0.10;;;19.80;99.90;;;;;;4847077;29;20049;-89
2022/08/04 05:47:11;;;;;;;0.10;0.10;;;19.90;99.90;;;;;;4845146;29;20057;-89
2022/08/04 05:49:39;;;;;;;0.20;0.20;;;20.10;99.90;;;;;;4844819;29;20085;-89
2022/08/04 05:52:06;;;;;;;0.20;0.20;;;20.20;99.90;;;;;;4860494;29;20049;-89
2022/08/04 05:54:34;;;;;;;0.32;0.32;;;20.40;99.90;;;;;;4861187;29;20049;-89
2022/08/04 05:57:03;;;;;;;0.10;0.10;;;20.40;99.90;;;;;;4861980;29;20097;-89
2022/08/04 05:59:31;;;;;;;0.10;0.10;;;20.70;99.90;;;;;;4836582;29;20057;-89
2022/08/04 06:01:58;;;;;;;0.00;0.00;;;20.70;99.90;;;;;;4864176;29;20085;-89
2022/08/04 06:04:49;;;;;;;0.13;0.10;;;20.80;99.90;;;;;;4863729;29;20045;-89
2022/08/04 06:07:16;;;;;;;0.50;0.50;;;20.90;99.90;;;;;;4863653;29;20140;-89
2022/08/04 06:09:41;;;;;;;0.52;0.20;;;21.10;99.90;;;;;;4863844;29;20060;-89
2022/08/04 06:12:19;;;;;;;0.17;0.10;;;21.30;99.90;;;;;;4845885;29;20052;-89
2022/08/04 06:14:52;;;;;;;0.68;0.30;;;21.50;99.90;;;;;;4854764;29;20060;-89
2022/08/04 06:17:43;;;;;;;0.15;0.10;;;21.60;99.90;;;;;;4848036;29;20045;-89
2022/08/04 06:20:10;;;;;;;0.50;0.30;;;21.70;99.90;;;;;;4863685;29;20064;-89
2022/08/04 06:22:40;;;;;;;0.70;0.40;;;21.80;99.90;;;;;;4848278;29;20057;-89
2022/08/04 06:25:09;;;;;;;0.10;0.10;;;21.80;99.90;;;;;;4847912;29;20083;-89
2022/08/04 06:27:35;;;;;;;0.20;0.10;;;21.90;99.90;;;;;;4848341;29;20409;-89
2022/08/04 06:30:01;;;;;;;0.10;0.10;;;22.00;99.90;;;;;;4848184;29;20045;-89
2022/08/04 06:32:46;;;;;;;0.20;0.10;;;22.00;99.90;;;;;;4863017;29;20045;-90
2022/08/04 06:35:17;;;;;;;0.47;0.20;;;22.10;99.90;;;;;;4829764;29;20053;-90
2022/08/04 06:37:45;;;;;;;0.20;0.20;;;22.30;99.90;;;;;;4861465;29;20053;-90
2022/08/04 06:40:19;;;;;;;0.68;0.25;;;22.40;99.90;;;;;;4844751;29;20052;-90
2022/08/04 06:42:47;;;;;;;0.10;0.10;;;22.50;99.90;;;;;;4829922;29;20116;-90
2022/08/04 06:45:14;;;;;;;0.10;0.10;;;22.60;99.90;;;;;;4844654;29;20049;-90
2022/08/04 06:47:41;;;;;;;0.30;0.20;;;22.70;99.90;;;;;;4845006;29;20104;-90
2022/08/04 06:50:10;;;;;;;0.35;0.25;;;22.70;99.90;;;;;;4844812;29;20060;-90
2022/08/04 06:52:37;;;;;;;0.22;0.17;;;22.70;99.90;;;;;;4844787;29;20104;-90
2022/08/04 06:55:05;;;;;;;0.73;0.10;;;22.70;99.90;;;;;;4844956;29;20108;-90
2022/08/04 06:57:40;;;;;;;0.15;0.15;;;22.70;99.90;;;;;;5090381;27;20385;-89
2022/08/04 07:00:10;;;;;;;0.50;0.13;;;22.80;99.90;;;;;;5087053;28;20040;-89
2022/08/04 07:02:49;;;;;;;0.15;0.15;;;22.80;99.90;;;;;;5089554;28;20051;-89
2022/08/04 07:05:16;;;;;;;0.10;0.10;;;22.90;99.90;;;;;;5071897;28;20040;-89
2022/08/04 07:07:43;;;;;;;0.30;0.30;;;22.90;99.90;;;;;;5089095;28;20105;-89
2022/08/04 07:10:09;;;;;;;0.00;0.00;;;23.00;99.90;;;;;;5088898;28;20095;-89
2022/08/04 07:12:37;;;;;;;0.55;0.32;;;23.10;99.90;;;;;;5089716;28;20497;-89
2022/08/04 07:15:05;;;;;;;0.15;0.15;;;23.10;99.90;;;;;;5089810;28;20044;-90
2022/08/04 07:17:32;;;;;;;0.90;0.17;;;23.20;99.90;;;;;;5088120;28;20036;-88
2022/08/04 07:20:04;;;;;;;0.10;0.10;;;23.30;99.90;;;;;;5089992;28;20119;-89
2022/08/04 07:22:31;;;;;;;0.03;0.03;;;23.40;99.90;;;;;;5089331;28;20089;-89
2022/08/04 07:24:57;;;;;;;0.00;0.00;;;23.50;99.90;;;;;;5089665;28;20032;-89
2022/08/04 07:27:26;;;;;;;0.20;0.20;;;23.50;99.90;;;;;;5055634;28;20470;-89
2022/08/04 07:29:52;;;;;;;0.10;0.10;;;23.50;99.90;;;;;;5086060;28;20064;-89
2022/08/04 07:32:21;;;;;;;;;;;23.50;99.90;;;;;;5071692;28;20474;-89
2022/08/04 07:34:48;;;;;;;0.10;0.10;;;23.60;99.90;;;;;;5088442;28;19916;-89
2022/08/04 07:37:14;;;;;;;0.00;0.00;;;23.70;99.90;;;;;;5071029;28;20047;-88
2022/08/04 07:39:40;;;;;;;0.20;0.10;;;23.70;99.90;;;;;;5088507;28;20044;-89
2022/08/04 07:42:06;;;;;;;0.10;0.10;;;23.80;99.90;;;;;;5088520;28;20044;-89
2022/08/04 07:44:32;;;;;;;;;;;23.80;99.90;;;;;;5071340;28;20044;-90
2022/08/04 07:47:00;;;;;;;0.07;0.07;;;24.00;99.90;;;;;;5089598;28;19916;-89
2022/08/04 07:49:26;;;;;;;0.10;0.10;;;24.10;99.90;;;;;;5087872;28;20048;-89
2022/08/04 07:51:52;;;;;;;;;;;24.10;99.90;;;;;;5088628;28;20129;-89
2022/08/04 07:54:19;;;;;;;0.40;0.30;;;24.20;99.90;;;;;;5087764;28;19994;-89
2022/08/04 07:56:47;;;;;;;0.00;0.00;;;24.30;99.90;;;;;;5070782;28;20102;-90
2022/08/04 07:59:14;;;;;;;0.03;0.00;;;24.40;99.90;;;;;;5071454;28;20059;-90
2022/08/04 08:01:40;;;;;;;0.10;0.10;;;24.40;99.90;;;;;;5065613;28;20478;-88
2022/08/04 08:04:07;;;;;;;0.15;0.15;;;24.50;99.90;;;;;;5067748;28;20041;-90
2022/08/04 08:06:36;;;;;;;0.10;0.10;;;24.60;99.90;;;;;;5067168;28;20356;-89
2022/08/04 08:09:22;;;;;;;0.17;0.10;;;24.60;99.90;;;;;;5037779;28;20045;-89
2022/08/04 08:11:51;;;;;;;0.45;0.32;;;24.60;99.90;;;;;;5038038;28;20111;-90
2022/08/04 08:14:18;;;;;;;0.20;0.20;;;24.70;99.90;;;;;;5054199;28;20044;-89
2022/08/04 08:16:44;;;;;;;0.13;0.13;;;24.70;99.90;;;;;;5070702;28;20114;-89
2022/08/04 08:19:10;;;;;;;0.10;0.10;;;24.70;99.90;;;;;;5055154;28;20088;-89
2022/08/04 08:21:36;;;;;;;0.20;0.20;;;24.80;99.90;;;;;;5037254;28;20462;-89
2022/08/04 08:24:04;;;;;;;0.35;0.10;;;24.90;99.90;;;;;;5053797;28;20492;-89
2022/08/04 08:26:30;;;;;;;0.10;0.00;;;25.00;99.90;;;;;;5053615;28;20458;-89
2022/08/04 08:28:56;;;;;;;0.03;0.03;;;25.10;99.90;;;;;;5054971;28;20073;-89
2022/08/04 08:31:21;;;;;;;;;;;25.20;99.90;;;;;;5062735;28;20105;-89
2022/08/04 08:33:49;;;;;;;0.17;0.17;;;25.20;99.90;;;;;;5055789;28;19923;-89
2022/08/04 08:36:35;;;;;;;0.00;0.00;;;25.30;99.90;;;;;;5073818;28;20044;-89
2022/08/04 08:39:03;;;;;;;0.00;0.00;;;25.30;99.90;;;;;;5074128;28;20048;-89
2022/08/04 08:41:50;;;;;;;0.10;0.10;;;25.40;99.90;;;;;;5073330;28;20048;-89
2022/08/04 08:44:45;;;;;;;0.20;0.10;;;25.50;99.90;;;;;;5073677;28;20037;-89
2022/08/04 08:47:32;;;;;;;0.08;0.08;;;25.50;99.90;;;;;;5065614;28;20475;-89
2022/08/04 08:50:16;;;;;;;0.10;0.10;;;25.50;99.90;;;;;;5074002;28;20040;-90
2022/08/04 08:52:48;;;;;;;0.52;0.20;;;25.60;99.90;;;;;;5056523;28;20048;-89
2022/08/04 08:55:30;;;;;;;0.00;0.00;;;25.60;99.90;;;;;;5056708;28;20037;-89
2022/08/04 08:58:34;;;;;;;0.08;0.08;;;25.60;99.90;;;;;;5074515;28;20056;-89
2022/08/04 09:01:38;;;;;;;0.13;0.10;;;25.70;99.90;;;;;;5072066;28;20063;-89
2022/08/04 09:04:09;;;;;;;0.28;0.22;;;25.80;99.90;;;;;;5042113;28;20738;-89
2022/08/04 09:07:12;;;;;;;0.10;0.10;;;25.90;99.90;;;;;;5041035;28;20045;-89
2022/08/04 09:09:52;;;;;;;0.13;0.13;;;26.00;99.90;;;;;;5035577;28;20121;-90
2022/08/04 09:12:49;;;;;;;0.20;0.10;;;26.00;99.90;;;;;;5053044;28;20045;-89
2022/08/04 09:15:32;;;;;;;0.10;0.10;;;26.10;99.90;;;;;;5054271;28;20041;-89
2022/08/04 09:18:09;;;;;;;0.10;0.10;;;26.20;99.90;;;;;;5053230;28;20376;-89
2022/08/04 09:21:05;;;;;;;0.20;0.20;;;26.30;99.90;;;;;;5051759;28;20438;-90
2022/08/04 09:23:50;;;;;;;0.20;0.20;;;26.30;99.90;;;;;;5050600;28;20053;-89
2022/08/04 09:26:37;;;;;;;0.00;0.00;;;26.30;99.90;;;;;;5053208;28;20090;-89
2022/08/04 09:29:16;;;;;;;0.10;0.10;;;26.40;99.90;;;;;;5086355;28;20098;-89
2022/08/04 09:32:19;;;;;;;0.05;0.05;;;26.50;99.90;;;;;;5052558;28;20136;-90
2022/08/04 09:35:23;;;;;;;0.00;0.00;;;26.90;99.90;;;;;;5056384;28;20040;-89
2022/08/04 09:38:12;;;;;;;0.00;0.00;;;26.60;99.90;;;;;;5072325;28;20119;-89
2022/08/04 09:40:53;;;;;;;0.10;0.10;;;26.70;99.90;;;;;;5055605;28;20048;-89
2022/08/04 09:43:43;;;;;;;0.20;0.17;;;26.80;99.90;;;;;;5073313;28;20588;-89
2022/08/04 09:46:17;;;;;;;0.10;0.10;;;26.90;99.90;;;;;;5072543;28;20446;-90
2022/08/04 09:48:49;;;;;;;0.10;0.10;;;26.90;99.90;;;;;;5072204;28;20048;-90
2022/08/04 09:51:32;;;;;;;0.10;0.10;;;27.00;99.90;;;;;;5055791;28;20040;-90
2022/08/04 09:54:13;;;;;;;0.10;0.10;;;27.10;99.90;;;;;;5073726;28;20052;-89
2022/08/04 09:56:49;;;;;;;0.00;0.00;;;27.20;99.90;;;;;;5071610;28;20091;-90
2022/08/04 09:59:15;;;;;;;;;;;27.20;99.90;;;;;;5056222;28;20378;-89
2022/08/04 10:01:42;;;;;;;0.35;0.35;;;27.20;99.90;;;;;;5071793;28;19923;-89
2022/08/04 10:04:12;;;;;;;0.10;0.10;;;27.20;99.90;;;;;;5070101;28;20064;-89
2022/08/04 10:07:05;;;;;;;0.28;0.28;;;27.30;99.90;;;;;;5070909;28;20047;-89
2022/08/04 10:09:49;;;;;;;0.20;0.20;;;27.30;99.90;;;;;;5071501;28;20498;-89
2022/08/04 10:12:23;;;;;;;0.00;0.00;;;27.30;99.90;;;;;;5072245;28;20044;-89
2022/08/04 10:15:02;;;;;;;0.20;0.20;;;27.30;99.90;;;;;;5071634;28;20044;-90
2022/08/04 10:17:43;;;;;;;0.15;0.10;;;27.30;99.90;;;;;;5071848;28;20501;-90
2022/08/04 10:20:21;;;;;;;0.63;0.25;;;27.30;99.90;;;;;;5072072;28;20048;-90
2022/08/04 10:23:24;;;;;;;0.20;0.13;;;27.30;99.90;;;;;;5071016;28;20054;-90
2022/08/04 10:26:02;;;;;;;0.00;0.00;;;27.20;99.90;;;;;;5060642;28;20052;-90
2022/08/04 10:28:30;;;;;;;0.30;0.10;;;27.20;99.90;;;;;;5072119;28;20137;-90
2022/08/04 10:31:05;;;;;;;0.00;0.00;;;27.20;99.90;;;;;;5071188;28;20475;-90
2022/08/04 10:33:40;;;;;;;0.30;0.30;;;27.20;99.90;;;;;;5071594;28;20123;-90
2022/08/04 10:36:09;;;;;;;0.00;0.00;;;27.30;99.90;;;;;;5071431;28;20040;-90
2022/08/04 10:38:56;;;;;;;0.00;0.00;;;27.30;99.90;;;;;;5071806;28;20098;-89
2022/08/04 10:41:41;;;;;;;;;;;27.40;99.90;;;;;;5055511;28;20124;-89
2022/08/04 10:44:27;;;;;;;0.00;0.00;;;27.20;99.90;;;;;;5071814;28;19916;-90
2022/08/04 10:47:06;;;;;;;0.00;0.00;;;27.20;99.90;;;;;;5070969;28;20049;-90
2022/08/04 10:49:49;;;;;;;0.20;0.20;;;27.20;99.90;;;;;;5072572;28;20120;-90
2022/08/04 10:52:36;;;;;;;0.10;0.10;;;27.20;99.90;;;;;;5071470;28;20044;-90
2022/08/04 10:55:22;;;;;;;0.10;0.10;;;27.30;99.90;;;;;;5071357;28;20505;-89
2022/08/04 10:58:06;;;;;;;0.00;0.00;;;27.30;99.90;;;;;;5071717;28;20098;-89
2022/08/04 11:00:36;;;;;;;0.28;0.10;;;27.30;99.90;;;;;;5071425;28;20049;-89
2022/08/04 11:03:33;;;;;;;0.10;0.10;;;27.20;99.90;;;;;;5070324;28;20070;-89
2022/08/04 11:06:02;;;;;;;0.15;0.10;;;27.20;99.90;;;;;;5065187;28;20403;-90
2022/08/04 11:08:41;;;;;;;0.20;0.10;;;27.20;99.90;;;;;;5072048;28;20495;-90
2022/08/04 11:11:30;;;;;;;0.00;0.00;;;27.20;99.90;;;;;;5071395;28;20115;-90
2022/08/04 11:14:06;;;;;;;0.00;0.00;;;27.10;99.90;;;;;;5071098;28;20076;-90
2022/08/04 11:16:38;;;;;;;;;;;27.00;99.90;;;;;;5071523;28;20142;-90
2022/08/04 11:19:17;;;;;;;0.00;0.00;;;27.00;99.90;;;;;;5068185;28;19923;-90
2022/08/04 11:21:54;;;;;;;0.00;0.00;;;27.10;99.90;;;;;;5070722;28;20131;-90
2022/08/04 11:24:40;;;;;;;0.00;0.00;;;27.20;99.90;;;;;;5054809;28;20053;-90
2022/08/04 11:27:13;;;;;;;0.00;0.00;;;27.20;99.90;;;;;;5054691;28;20052;-90
2022/08/04 11:29:51;;;;;;;0.00;0.00;;;26.80;99.90;;;;;;5054630;28;20056;-90
2022/08/04 11:32:20;;;;;;;0.03;0.03;;;27.10;99.90;;;;;;5071471;28;20080;-91
2022/08/04 11:34:54;;;;;;;0.20;0.10;;;27.00;99.90;;;;;;5070753;28;20396;-90
2022/08/04 11:38:01;;;;;;;0.05;0.05;;;27.00;99.90;;;;;;5071002;28;20483;-91
2022/08/04 11:40:40;;;;;;;0.00;0.00;;;27.00;99.90;;;;;;5064486;28;20060;-91
2022/08/04 11:43:12;;;;;;;0.10;0.10;;;26.90;99.90;;;;;;5073428;28;20044;-90
2022/08/04 11:46:00;;;;;;;0.13;0.13;;;26.90;99.90;;;;;;5074961;28;20471;-90
2022/08/04 11:48:35;;;;;;;0.17;0.10;;;26.90;99.90;;;;;;5074808;28;20131;-90
2022/08/04 11:51:04;;;;;;;0.00;0.00;;;26.90;99.90;;;;;;5074605;28;20125;-90
2022/08/04 11:53:32;;;;;;;0.10;0.10;;;26.90;99.90;;;;;;5074466;28;20197;-90
2022/08/04 11:56:03;;;;;;;0.00;0.00;;;26.80;99.90;;;;;;5057631;28;20057;-90
2022/08/04 11:58:29;;;;;;;0.17;0.15;;;26.80;99.90;;;;;;5075640;28;20048;-90
2022/08/04 12:00:55;;;;;;;;;;;26.80;99.90;;;;;;5041438;28;20048;-90
2022/08/04 12:03:49;;;;;;;0.00;0.00;;;26.70;99.90;;;;;;5074711;28;19938;-90
2022/08/04 12:06:47;;;;;;;0.00;0.00;;;26.60;99.90;;;;;;5073105;28;20439;-91
2022/08/04 12:09:38;;;;;;;0.15;0.15;;;26.60;99.90;;;;;;5057149;28;20447;-91
2022/08/04 12:12:21;;;;;;;0.00;0.00;;;26.50;99.90;;;;;;5074022;28;20463;-90
2022/08/04 12:14:51;;;;;;;0.15;0.00;;;26.40;99.90;;;;;;5075338;28;20036;-91
2022/08/04 12:17:30;;;;;;;0.05;0.05;;;26.30;99.90;;;;;;5075365;28;20047;-91
2022/08/04 12:20:00;;;;;;;0.00;0.00;;;26.30;99.90;;;;;;5073994;28;20040;-91
2022/08/04 12:22:31;;;;;;;0.00;0.00;;;26.30;99.90;;;;;;5074609;28;20486;-91
2022/08/04 12:25:08;;;;;;;0.00;0.00;;;26.20;99.90;;;;;;5074991;28;20086;-90
2022/08/04 12:27:52;;;;;;;0.00;0.00;;;26.10;99.90;;;;;;5075081;28;20075;-90
2022/08/04 12:30:19;;;;;;;0.00;0.00;;;26.00;99.90;;;;;;5074413;28;20044;-90
2022/08/04 12:33:02;;;;;;;0.00;0.00;;;25.90;99.90;;;;;;5057508;28;20045;-91
2022/08/04 12:35:55;;;;;;;0.28;0.10;;;25.90;99.90;;;;;;5071541;28;20123;-90
2022/08/04 12:38:25;;;;;;;0.00;0.00;;;25.70;99.90;;;;;;5071040;28;20387;-90
2022/08/04 12:40:54;;;;;;;0.05;0.05;;;25.70;99.90;;;;;;5053995;28;20056;-89
2022/08/04 12:43:41;;;;;;;0.10;0.10;;;25.50;99.90;;;;;;5054025;28;20430;-90
2022/08/04 12:46:18;;;;;;;0.03;0.00;;;25.50;99.90;;;;;;5088335;28;20423;-90
2022/08/04 12:48:45;;;;;;;0.10;0.10;;;25.40;99.90;;;;;;5053798;28;20103;-90
2022/08/04 12:51:12;;;;;;;0.00;0.00;;;25.30;99.90;;;;;;5036852;28;20131;-90
2022/08/04 12:53:42;;;;;;;0.13;0.10;;;25.20;99.90;;;;;;5037202;28;20037;-90
2022/08/04 12:56:13;;;;;;;0.00;0.00;;;25.20;99.90;;;;;;5053258;28;20498;-91
2022/08/04 12:58:41;;;;;;;0.10;0.10;;;25.20;99.90;;;;;;5055198;28;20096;-90
2022/08/04 13:01:11;;;;;;;0.00;0.00;;;25.10;99.90;;;;;;5052815;28;20040;-90
2022/08/04 13:03:58;;;;;;;0.10;0.10;;;25.10;99.90;;;;;;5054473;28;20545;-90
2022/08/04 13:06:31;;;;;;;0.10;0.10;;;25.10;99.90;;;;;;5057060;28;20032;-90
2022/08/04 13:09:07;;;;;;;0.00;0.00;;;25.10;99.90;;;;;;5053905;28;20417;-90
2022/08/04 13:11:39;;;;;;;0.05;0.00;;;25.10;99.90;;;;;;5074281;28;20098;-90
2022/08/04 13:14:06;;;;;;;0.00;0.00;;;25.10;99.90;;;;;;5073584;28;20499;-91
2022/08/04 13:16:33;;;;;;;0.00;0.00;;;25.20;99.90;;;;;;5073283;28;20047;-90
2022/08/04 13:18:59;;;;;;;0.00;0.00;;;25.20;99.90;;;;;;5057171;28;20482;-89
2022/08/04 13:21:28;;;;;;;0.17;0.17;;;25.30;99.90;;;;;;5074045;28;20044;-90
2022/08/04 13:24:03;;;;;;;0.00;0.00;;;25.40;99.90;;;;;;5073074;28;20098;-90
2022/08/04 13:26:29;;;;;;;0.00;0.00;;;25.40;99.90;;;;;;5072980;28;20040;-90
2022/08/04 13:28:59;;;;;;;0.10;0.00;;;25.50;99.90;;;;;;5073008;28;20547;-90
2022/08/04 13:31:27;;;;;;;0.00;0.00;;;25.50;99.90;;;;;;5074425;28;20049;-90
2022/08/04 13:34:04;;;;;;;0.38;0.10;;;25.60;99.90;;;;;;5073349;28;20416;-90
2022/08/04 13:36:30;;;;;;;0.00;0.00;;;25.70;99.90;;;;;;5055556;28;20463;-89
2022/08/04 13:39:22;;;;;;;0.10;0.10;;;25.80;99.90;;;;;;5072452;28;20045;-90
2022/08/04 13:41:52;;;;;;;0.10;0.10;;;26.00;99.90;;;;;;5072935;28;20490;-90
2022/08/04 13:44:21;;;;;;;0.00;0.00;;;26.20;99.90;;;;;;5072920;28;20127;-91
2022/08/04 13:47:09;;;;;;;0.00;0.00;;;26.30;99.90;;;;;;5072709;28;20044;-90